createdAt,value
2018-10-05T00:01:10.961Z,20.02
2018-10-05T00:03:36.470Z,20.03
2018-10-05T00:06:01.938Z,20.03
2018-10-05T00:08:27.415Z,20.02
2018-10-05T00:10:52.901Z,20.03
2018-10-05T00:13:18.369Z,20.02
2018-10-05T00:15:43.878Z,20.01
2018-10-05T00:18:09.375Z,20.02
2018-10-05T00:20:34.925Z,20.02
2018-10-05T00:23:00.340Z,20.01
2018-10-05T00:25:25.837Z,20.02
2018-10-05T00:27:51.341Z,20.02
2018-10-05T00:30:16.831Z,20.01
2018-10-05T00:32:42.296Z,20.01
2018-10-05T00:35:07.773Z,20.00
2018-10-05T00:37:33.270Z,20.00
2018-10-05T00:39:58.735Z,20.01
2018-10-05T00:42:24.213Z,20.00
2018-10-05T00:44:49.703Z,20.01
2018-10-05T00:47:15.173Z,20.00
2018-10-05T00:49:40.644Z,19.99
2018-10-05T00:52:06.111Z,19.99
2018-10-05T00:54:31.605Z,20.00
2018-10-05T00:56:57.099Z,20.00
2018-10-05T00:59:22.568Z,19.99
2018-10-05T01:01:48.066Z,19.99
2018-10-05T01:04:13.540Z,19.99
2018-10-05T01:06:39.009Z,19.99
2018-10-05T01:09:04.475Z,19.99
2018-10-05T01:11:30.031Z,19.99
2018-10-05T01:13:55.461Z,19.99
2018-10-05T01:16:20.957Z,19.99
2018-10-05T01:18:46.424Z,19.99
2018-10-05T01:21:11.920Z,19.97
2018-10-05T01:23:37.395Z,19.98
2018-10-05T01:26:02.877Z,19.97
2018-10-05T01:28:28.353Z,19.97
2018-10-05T01:30:53.844Z,19.97
2018-10-05T01:33:19.312Z,19.96
2018-10-05T01:35:44.787Z,19.96
2018-10-05T01:38:10.256Z,19.97
2018-10-05T01:40:35.755Z,19.96
2018-10-05T01:43:01.225Z,19.96
2018-10-05T01:45:26.694Z,19.96
2018-10-05T01:47:52.164Z,19.97
2018-10-05T01:50:17.642Z,19.96
2018-10-05T01:52:43.118Z,19.96
2018-10-05T01:55:08.613Z,19.95
2018-10-05T01:57:34.104Z,19.96
2018-10-05T01:59:59.571Z,19.95
2018-10-05T02:02:25.107Z,19.96
2018-10-05T02:04:50.555Z,19.95
2018-10-05T02:07:16.019Z,19.95
2018-10-05T02:09:41.488Z,19.95
2018-10-05T02:12:06.966Z,19.95
2018-10-05T02:14:32.433Z,19.95
2018-10-05T02:16:57.925Z,19.96
2018-10-05T02:19:23.398Z,19.94
2018-10-05T02:21:48.869Z,19.94
2018-10-05T02:24:14.336Z,19.94
2018-10-05T02:26:39.809Z,19.94
2018-10-05T02:29:05.277Z,19.94
2018-10-05T02:31:30.771Z,19.93
2018-10-05T02:33:56.243Z,19.93
2018-10-05T02:36:21.795Z,19.94
2018-10-05T02:38:47.271Z,19.93
2018-10-05T02:41:12.737Z,19.93
2018-10-05T02:43:38.231Z,19.93
2018-10-05T02:46:03.705Z,19.93
2018-10-05T02:48:29.178Z,19.93
2018-10-05T02:50:54.644Z,19.93
2018-10-05T02:53:20.162Z,19.92
2018-10-05T02:55:45.637Z,19.92
2018-10-05T02:58:11.142Z,19.93
2018-10-05T03:00:36.629Z,19.92
2018-10-05T03:03:02.101Z,19.91
2018-10-05T03:05:27.592Z,19.91
2018-10-05T03:07:53.086Z,19.91
2018-10-05T03:10:18.582Z,19.92
2018-10-05T03:12:44.072Z,19.92
2018-10-05T03:15:09.580Z,19.92
2018-10-05T03:17:35.044Z,19.91
2018-10-05T03:20:00.539Z,19.91
2018-10-05T03:22:26.013Z,19.91
2018-10-05T03:24:51.517Z,19.91
2018-10-05T03:27:17.012Z,19.91
2018-10-05T03:29:42.555Z,19.91
2018-10-05T03:32:08.031Z,19.91
2018-10-05T03:34:33.522Z,19.91
2018-10-05T03:36:58.996Z,19.91
2018-10-05T03:39:24.491Z,19.89
2018-10-05T03:41:49.994Z,19.90
2018-10-05T03:44:15.525Z,19.89
2018-10-05T03:46:40.937Z,19.89
2018-10-05T03:49:06.434Z,19.90
2018-10-05T03:51:31.908Z,19.90
2018-10-05T03:53:57.397Z,19.90
2018-10-05T03:56:22.867Z,19.89
2018-10-05T03:58:48.367Z,19.89
2018-10-05T04:01:13.862Z,19.89
2018-10-05T04:03:39.360Z,19.89
2018-10-05T04:06:04.849Z,19.88
2018-10-05T04:08:30.353Z,19.88
2018-10-05T04:10:55.852Z,19.88
2018-10-05T04:13:21.342Z,19.88
2018-10-05T04:15:46.875Z,19.88
2018-10-05T04:18:12.341Z,19.88
2018-10-05T04:20:37.870Z,19.87
2018-10-05T04:23:03.337Z,19.88
2018-10-05T04:25:28.815Z,19.87
2018-10-05T04:27:54.285Z,19.87
2018-10-05T04:30:19.784Z,19.87
2018-10-05T04:32:45.279Z,19.87
2018-10-05T04:35:10.857Z,19.86
2018-10-05T04:37:36.311Z,19.86
2018-10-05T04:40:01.811Z,19.86
2018-10-05T04:42:27.289Z,19.86
2018-10-05T04:44:52.786Z,19.85
2018-10-05T04:47:18.255Z,19.85
2018-10-05T04:49:43.908Z,19.86
2018-10-05T04:52:09.273Z,19.88
2018-10-05T04:54:34.748Z,19.88
2018-10-05T04:57:00.308Z,19.88
2018-10-05T04:59:25.715Z,19.88
2018-10-05T05:01:51.211Z,19.89
2018-10-05T05:04:16.688Z,19.92
2018-10-05T05:06:42.158Z,19.91
2018-10-05T05:09:07.692Z,19.90
2018-10-05T05:11:33.185Z,19.89
2018-10-05T05:13:58.664Z,19.89
2018-10-05T05:16:24.137Z,19.88
2018-10-05T05:18:49.647Z,19.88
2018-10-05T05:21:15.143Z,19.89
2018-10-05T05:23:40.639Z,19.88
2018-10-05T05:26:06.129Z,19.88
2018-10-05T05:28:31.645Z,19.87
2018-10-05T05:30:57.130Z,19.86
2018-10-05T05:33:22.674Z,19.89
2018-10-05T05:35:48.173Z,19.93
2018-10-05T05:38:13.670Z,19.95
2018-10-05T05:40:39.191Z,19.97
2018-10-05T05:43:04.833Z,19.96
2018-10-05T05:45:30.327Z,19.98
2018-10-05T05:47:56.195Z,19.97
2018-10-05T05:50:21.672Z,19.97
2018-10-05T05:52:47.179Z,19.95
2018-10-05T05:55:12.685Z,19.94
2018-10-05T05:57:38.162Z,19.93
2018-10-05T06:00:03.669Z,19.94
2018-10-05T06:02:29.162Z,19.93
2018-10-05T06:04:54.649Z,19.93
2018-10-05T06:07:20.138Z,19.91
2018-10-05T06:09:45.642Z,19.93
2018-10-05T06:12:11.155Z,19.90
2018-10-05T06:14:36.612Z,19.90
2018-10-05T06:17:02.084Z,19.88
2018-10-05T06:19:27.586Z,19.89
2018-10-05T06:21:53.311Z,19.90
2018-10-05T06:24:18.536Z,19.89
2018-10-05T06:26:44.043Z,19.89
2018-10-05T06:29:09.533Z,19.89
2018-10-05T06:31:35.122Z,19.88
2018-10-05T06:34:00.806Z,19.88
2018-10-05T06:36:26.337Z,19.87
2018-10-05T06:38:51.984Z,19.87
2018-10-05T06:41:17.463Z,19.86
2018-10-05T06:43:43.005Z,19.86
2018-10-05T06:46:08.537Z,19.85
2018-10-05T06:48:34.028Z,19.86
2018-10-05T06:50:59.693Z,19.85
2018-10-05T06:53:25.231Z,19.85
2018-10-05T06:55:50.699Z,19.85
2018-10-05T06:58:16.189Z,19.87
2018-10-05T07:00:41.674Z,19.92
2018-10-05T07:03:07.226Z,19.93
2018-10-05T07:05:32.699Z,19.91
2018-10-05T07:07:58.260Z,19.92
2018-10-05T07:10:23.742Z,19.91
2018-10-05T07:12:49.220Z,19.92
2018-10-05T07:15:14.739Z,19.92
2018-10-05T07:17:40.279Z,19.92
2018-10-05T07:20:05.777Z,19.91
2018-10-05T07:22:31.333Z,19.92
2018-10-05T07:24:56.779Z,19.93
2018-10-05T07:27:22.280Z,19.93
2018-10-05T07:29:47.778Z,19.91
2018-10-05T07:32:13.326Z,19.91
2018-10-05T07:34:39.404Z,19.91
2018-10-05T07:37:05.178Z,19.91
2018-10-05T07:39:42.639Z,19.91
2018-10-05T07:42:08.145Z,19.91
2018-10-05T07:44:33.612Z,19.91
2018-10-05T07:46:59.108Z,19.92
2018-10-05T07:49:24.644Z,19.92
2018-10-05T07:51:50.180Z,19.91
2018-10-05T07:54:15.591Z,19.92
2018-10-05T07:56:41.073Z,19.94
2018-10-05T07:59:06.569Z,19.93
2018-10-05T08:01:32.071Z,19.93
2018-10-05T08:03:58.695Z,19.96
2018-10-05T08:06:23.094Z,19.94
2018-10-05T08:08:48.588Z,19.94
2018-10-05T08:11:14.070Z,19.94
2018-10-05T08:13:39.563Z,19.94
2018-10-05T08:16:05.073Z,19.96
2018-10-05T08:18:30.537Z,19.95
2018-10-05T08:20:56.213Z,19.95
2018-10-05T08:23:21.688Z,19.96
2018-10-05T08:25:47.161Z,19.97
2018-10-05T08:28:12.727Z,19.98
2018-10-05T08:30:38.332Z,19.99
2018-10-05T08:33:03.830Z,19.98
2018-10-05T08:35:29.323Z,19.98
2018-10-05T08:37:54.827Z,19.98
2018-10-05T08:40:20.437Z,19.97
2018-10-05T08:42:45.868Z,19.96
2018-10-05T08:45:11.365Z,19.95
2018-10-05T08:47:36.837Z,19.95
2018-10-05T08:50:02.318Z,19.95
2018-10-05T08:52:28.043Z,19.97
2018-10-05T08:54:53.540Z,19.96
2018-10-05T08:57:19.077Z,19.97
2018-10-05T08:59:44.579Z,19.97
2018-10-05T09:02:10.082Z,19.97
2018-10-05T09:04:35.575Z,19.98
2018-10-05T09:07:01.060Z,19.99
2018-10-05T09:09:26.561Z,19.99
2018-10-05T09:11:52.048Z,19.98
2018-10-05T09:14:17.555Z,19.97
2018-10-05T09:16:43.054Z,19.96
2018-10-05T09:19:08.689Z,19.96
2018-10-05T09:21:34.210Z,19.95
2018-10-05T09:23:59.778Z,19.97
2018-10-05T09:26:25.207Z,19.97
2018-10-05T09:28:50.703Z,19.97
2018-10-05T09:31:16.211Z,19.98
2018-10-05T09:33:41.712Z,19.99
2018-10-05T09:36:07.222Z,19.98
2018-10-05T09:38:32.707Z,20.00
2018-10-05T09:40:58.177Z,20.01
2018-10-05T09:43:23.640Z,20.02
2018-10-05T09:45:49.136Z,20.00
2018-10-05T09:48:14.607Z,20.01
2018-10-05T09:50:40.082Z,20.00
2018-10-05T09:53:05.606Z,20.01
2018-10-05T09:55:31.094Z,20.01
2018-10-05T09:57:56.585Z,20.03
2018-10-05T10:00:22.083Z,20.01
2018-10-05T10:02:47.614Z,20.03
2018-10-05T10:05:13.124Z,20.05
2018-10-05T10:07:38.623Z,20.04
2018-10-05T10:10:04.112Z,20.04
2018-10-05T10:12:29.597Z,20.07
2018-10-05T10:14:55.108Z,20.07
2018-10-05T10:17:20.620Z,20.07
2018-10-05T10:19:46.112Z,20.08
2018-10-05T10:22:11.590Z,20.10
2018-10-05T10:24:37.108Z,20.11
2018-10-05T10:27:02.632Z,20.11
2018-10-05T10:29:28.138Z,20.11
2018-10-05T10:31:53.580Z,20.10
2018-10-05T10:34:19.107Z,20.10
2018-10-05T10:36:44.563Z,20.07
2018-10-05T10:39:10.033Z,20.12
2018-10-05T10:41:35.527Z,20.12
2018-10-05T10:44:01.029Z,20.14
2018-10-05T10:46:26.535Z,20.16
2018-10-05T10:48:52.029Z,20.20
2018-10-05T10:51:17.521Z,20.19
2018-10-05T10:53:43.016Z,20.15
2018-10-05T10:56:08.542Z,20.16
2018-10-05T10:58:34.011Z,20.17
2018-10-05T11:00:59.491Z,20.18
2018-10-05T11:03:24.989Z,20.19
2018-10-05T11:05:50.504Z,20.19
2018-10-05T11:08:16.001Z,20.19
2018-10-05T11:10:41.490Z,20.17
2018-10-05T11:13:06.991Z,20.18
2018-10-05T11:15:32.460Z,20.18
2018-10-05T11:17:57.931Z,20.15
2018-10-05T11:20:23.425Z,20.17
2018-10-05T11:22:48.931Z,20.15
2018-10-05T11:25:14.462Z,20.14
2018-10-05T11:27:39.932Z,20.13
2018-10-05T11:30:05.406Z,20.13
2018-10-05T11:32:30.894Z,20.13
2018-10-05T11:34:56.399Z,20.12
2018-10-05T11:37:21.894Z,20.14
2018-10-05T11:39:47.412Z,20.15
2018-10-05T11:42:12.893Z,20.15
2018-10-05T11:44:38.369Z,20.13
2018-10-05T11:47:03.842Z,20.15
2018-10-05T11:49:29.335Z,20.16
2018-10-05T11:51:54.843Z,20.17
2018-10-05T11:54:20.340Z,20.15
2018-10-05T11:56:45.814Z,20.15
2018-10-05T11:59:11.299Z,20.17
2018-10-05T12:01:36.768Z,20.17
2018-10-05T12:04:02.297Z,20.16
2018-10-05T12:06:27.802Z,20.17
2018-10-05T12:08:53.317Z,20.16
2018-10-05T12:11:18.830Z,20.17
2018-10-05T12:13:44.364Z,20.20
2018-10-05T12:16:09.846Z,20.19
2018-10-05T12:18:35.324Z,20.16
2018-10-05T12:21:00.817Z,20.19
2018-10-05T12:23:26.318Z,20.17
2018-10-05T12:25:51.815Z,20.19
2018-10-05T12:28:17.333Z,20.20
2018-10-05T12:30:42.808Z,20.20
2018-10-05T12:33:08.337Z,20.21
2018-10-05T12:35:33.778Z,20.21
2018-10-05T12:37:59.278Z,20.22
2018-10-05T12:40:24.781Z,20.21
2018-10-05T12:42:50.277Z,20.22
2018-10-05T12:45:15.791Z,20.22
2018-10-05T12:47:41.269Z,20.23
2018-10-05T12:50:06.815Z,20.24
2018-10-05T12:52:32.299Z,20.23
2018-10-05T12:54:57.831Z,20.25
2018-10-05T12:57:23.315Z,20.23
2018-10-05T12:59:48.788Z,20.25
2018-10-05T13:02:14.266Z,20.27
2018-10-05T13:04:39.768Z,20.24
2018-10-05T13:07:05.250Z,20.24
2018-10-05T13:09:30.754Z,20.21
2018-10-05T13:11:56.258Z,20.20
2018-10-05T13:14:21.827Z,20.20
2018-10-05T13:16:47.303Z,20.16
2018-10-05T13:19:12.788Z,20.18
2018-10-05T13:21:38.256Z,20.20
2018-10-05T13:24:03.755Z,20.19
2018-10-05T13:26:29.228Z,20.21
2018-10-05T13:28:54.739Z,20.21
2018-10-05T13:31:20.214Z,20.22
2018-10-05T13:33:46.435Z,20.25
2018-10-05T13:36:11.906Z,20.26
2018-10-05T13:38:37.400Z,20.28
2018-10-05T13:41:02.901Z,20.26
2018-10-05T13:43:28.392Z,20.28
2018-10-05T13:45:53.886Z,20.27
2018-10-05T13:48:19.385Z,20.29
2018-10-05T13:50:44.895Z,20.30
2018-10-05T13:53:10.374Z,20.25
2018-10-05T13:55:35.937Z,20.22
2018-10-05T13:58:01.970Z,20.19
2018-10-05T14:00:27.458Z,20.21
2018-10-05T14:02:52.984Z,20.23
2018-10-05T14:05:18.434Z,20.28
2018-10-05T14:07:43.902Z,20.28
2018-10-05T14:10:09.401Z,20.28
2018-10-05T14:12:34.903Z,20.25
2018-10-05T14:15:00.416Z,20.27
2018-10-05T14:17:25.895Z,20.28
2018-10-05T14:19:51.473Z,20.25
2018-10-05T14:22:16.974Z,20.26
2018-10-05T14:24:42.476Z,20.24
2018-10-05T14:27:07.952Z,20.22
2018-10-05T14:29:33.465Z,20.21
2018-10-05T14:31:58.964Z,20.19
2018-10-05T14:34:24.433Z,20.21
2018-10-05T14:36:49.951Z,20.20
2018-10-05T14:39:15.445Z,20.20
2018-10-05T14:41:41.035Z,20.16
2018-10-05T14:44:06.440Z,20.16
2018-10-05T14:46:31.921Z,20.16
2018-10-05T14:48:58.025Z,20.16
2018-10-05T14:51:23.971Z,20.17
2018-10-05T14:53:49.644Z,20.19
2018-10-05T14:56:15.312Z,20.23
2018-10-05T14:58:40.791Z,20.22
2018-10-05T15:01:06.286Z,20.21
2018-10-05T15:03:31.782Z,20.26
2018-10-05T15:05:57.310Z,20.21
2018-10-05T15:08:22.776Z,20.26
2018-10-05T15:10:48.265Z,20.25
2018-10-05T15:13:13.793Z,20.21
2018-10-05T15:15:39.236Z,20.21
2018-10-05T15:18:04.738Z,20.20
2018-10-05T15:20:30.238Z,20.18
2018-10-05T15:22:55.740Z,20.24
2018-10-05T15:25:21.231Z,20.22
2018-10-05T15:27:46.715Z,20.26
2018-10-05T15:30:12.223Z,20.26
2018-10-05T15:32:37.773Z,20.22
2018-10-05T15:35:03.218Z,20.25
2018-10-05T15:37:28.733Z,20.21
2018-10-05T15:39:54.275Z,20.23
2018-10-05T15:42:19.751Z,20.22
2018-10-05T15:44:45.261Z,20.23
2018-10-05T15:47:10.788Z,20.27
2018-10-05T15:49:36.277Z,20.27
2018-10-05T15:52:01.782Z,20.20
2018-10-05T15:54:35.034Z,20.22
2018-10-05T15:57:00.954Z,20.17
2018-10-05T15:59:47.508Z,20.17
2018-10-05T16:02:13.333Z,20.13
2018-10-05T16:04:38.806Z,20.14
2018-10-05T16:07:04.304Z,20.13
2018-10-05T16:09:29.782Z,20.19
2018-10-05T16:11:55.339Z,20.15
2018-10-05T16:14:20.824Z,20.19
2018-10-05T16:16:46.297Z,20.19
2018-10-05T16:19:11.841Z,20.20
2018-10-05T16:21:37.317Z,20.17
2018-10-05T16:24:02.790Z,20.21
2018-10-05T16:26:28.269Z,20.19
2018-10-05T16:28:54.413Z,20.18
2018-10-05T16:31:19.900Z,20.20
2018-10-05T16:33:45.380Z,20.18
2018-10-05T16:36:10.858Z,20.21
2018-10-05T16:38:36.337Z,20.21
2018-10-05T16:41:01.840Z,20.23
2018-10-05T16:43:27.384Z,20.28
2018-10-05T16:45:52.882Z,20.32
2018-10-05T16:48:20.054Z,20.33
2018-10-05T16:50:45.580Z,20.28
2018-10-05T16:53:11.074Z,20.27
2018-10-05T16:55:36.614Z,20.28
2018-10-05T16:58:02.092Z,20.31
2018-10-05T17:00:27.581Z,20.29
2018-10-05T17:02:53.076Z,20.27
2018-10-05T17:05:18.581Z,20.26
2018-10-05T17:07:44.908Z,20.24
2018-10-05T17:10:10.538Z,20.29
2018-10-05T17:12:36.034Z,20.29
2018-10-05T17:15:01.511Z,20.26
2018-10-05T17:17:26.987Z,20.32
2018-10-05T17:19:52.473Z,20.29
2018-10-05T17:22:17.977Z,20.30
2018-10-05T17:24:43.546Z,20.32
2018-10-05T17:27:09.057Z,20.29
2018-10-05T17:29:34.568Z,20.27
2018-10-05T17:32:00.133Z,20.31
2018-10-05T17:34:25.631Z,20.30
2018-10-05T17:36:51.099Z,20.32
2018-10-05T17:39:16.702Z,20.34
2018-10-05T17:41:42.199Z,20.34
2018-10-05T17:44:07.700Z,20.31
2018-10-05T17:46:33.204Z,20.31
2018-10-05T17:48:59.159Z,20.36
2018-10-05T17:51:24.821Z,20.31
2018-10-05T17:53:50.312Z,20.37
2018-10-05T17:56:15.829Z,20.36
2018-10-05T17:58:41.318Z,20.43
2018-10-05T18:01:06.889Z,20.43
2018-10-05T18:03:32.368Z,20.45
2018-10-05T18:05:58.682Z,20.42
2018-10-05T18:08:24.189Z,20.48
2018-10-05T18:10:49.644Z,20.41
2018-10-05T18:13:15.134Z,20.39
2018-10-05T18:15:40.628Z,20.43
2018-10-05T18:18:06.110Z,20.43
2018-10-05T18:20:31.585Z,20.43
2018-10-05T18:22:59.514Z,20.42
2018-10-05T18:25:25.591Z,20.44
2018-10-05T18:27:51.119Z,20.44
2018-10-05T18:30:16.581Z,20.42
2018-10-05T18:32:42.091Z,20.39
2018-10-05T18:35:07.628Z,20.42
2018-10-05T18:37:33.128Z,20.41
2018-10-05T18:39:58.602Z,20.41
2018-10-05T18:42:24.157Z,20.42
2018-10-05T18:44:50.403Z,20.41
2018-10-05T18:47:16.277Z,20.41
2018-10-05T18:49:42.201Z,20.41
2018-10-05T18:52:08.163Z,20.40
2018-10-05T18:54:43.164Z,20.40
2018-10-05T18:57:10.041Z,20.41
2018-10-05T18:59:39.471Z,20.39
2018-10-05T19:02:05.941Z,20.37
2018-10-05T19:04:31.539Z,20.39
2018-10-05T19:07:01.261Z,20.39
2018-10-05T19:09:28.623Z,20.39
2018-10-05T19:11:54.125Z,20.40
2018-10-05T19:14:19.781Z,20.41
2018-10-05T19:16:45.410Z,20.41
2018-10-05T19:19:11.299Z,20.41
2018-10-05T19:21:38.374Z,20.41
2018-10-05T19:24:07.900Z,20.39
2018-10-05T19:26:33.568Z,20.38
2018-10-05T19:29:07.606Z,20.37
2018-10-05T19:31:33.247Z,20.38
2018-10-05T19:33:58.846Z,20.38
2018-10-05T19:36:24.378Z,20.32
2018-10-05T19:38:49.857Z,20.33
2018-10-05T19:41:15.338Z,20.34
2018-10-05T19:43:40.836Z,20.33
2018-10-05T19:46:06.319Z,20.31
2018-10-05T19:48:31.795Z,20.32
2018-10-05T19:50:57.307Z,20.31
2018-10-05T19:53:22.886Z,20.28
2018-10-05T19:55:48.274Z,20.26
2018-10-05T19:58:13.748Z,20.26
2018-10-05T20:00:39.255Z,20.27
2018-10-05T20:03:04.730Z,20.27
2018-10-05T20:05:30.231Z,20.26
2018-10-05T20:07:55.700Z,20.24
2018-10-05T20:10:21.175Z,20.23
2018-10-05T20:12:46.691Z,20.23
2018-10-05T20:15:12.568Z,20.24
2018-10-05T20:17:38.932Z,20.28
2018-10-05T20:20:04.354Z,20.28
2018-10-05T20:22:29.869Z,20.28
2018-10-05T20:24:55.345Z,20.26
2018-10-05T20:27:20.817Z,20.27
2018-10-05T20:29:46.298Z,20.27
2018-10-05T20:32:11.774Z,20.24
2018-10-05T20:34:37.274Z,20.26
2018-10-05T20:37:02.954Z,20.26
2018-10-05T20:39:28.255Z,20.24
2018-10-05T20:41:53.771Z,20.26
2018-10-05T20:44:19.272Z,20.25
2018-10-05T20:46:44.783Z,20.24
2018-10-05T20:49:10.274Z,20.25
2018-10-05T20:51:35.861Z,20.24
2018-10-05T20:54:01.321Z,20.24
2018-10-05T20:56:26.818Z,20.23
2018-10-05T20:58:52.289Z,20.24
2018-10-05T21:01:17.788Z,20.22
2018-10-05T21:03:43.291Z,20.22
2018-10-05T21:06:08.827Z,20.22
2018-10-05T21:08:34.302Z,20.23
2018-10-05T21:10:59.773Z,20.23
2018-10-05T21:13:25.272Z,20.21
2018-10-05T21:15:50.749Z,20.19
2018-10-05T21:18:16.222Z,20.20
2018-10-05T21:20:41.696Z,20.17
2018-10-05T21:23:07.164Z,20.14
2018-10-05T21:25:32.637Z,20.15
2018-10-05T21:27:58.111Z,20.15
2018-10-05T21:30:23.587Z,20.14
2018-10-05T21:32:49.105Z,20.13
2018-10-05T21:35:14.576Z,20.11
2018-10-05T21:37:40.070Z,20.11
2018-10-05T21:40:05.569Z,20.10
2018-10-05T21:42:31.081Z,20.09
2018-10-05T21:44:56.645Z,20.11
2018-10-05T21:47:22.059Z,20.10
2018-10-05T21:49:47.575Z,20.09
2018-10-05T21:52:13.048Z,20.09
2018-10-05T21:54:38.555Z,20.09
2018-10-05T21:57:04.051Z,20.09
2018-10-05T21:59:29.530Z,20.09
2018-10-05T22:01:55.003Z,20.08
2018-10-05T22:04:20.485Z,20.08
2018-10-05T22:06:45.955Z,20.08
2018-10-05T22:09:11.461Z,20.08
2018-10-05T22:11:36.932Z,20.07
2018-10-05T22:14:02.423Z,20.07
2018-10-05T22:16:27.927Z,20.06
2018-10-05T22:18:53.403Z,20.06
2018-10-05T22:21:18.873Z,20.06
2018-10-05T22:23:44.375Z,20.06
2018-10-05T22:26:09.871Z,20.06
2018-10-05T22:28:35.373Z,20.06
2018-10-05T22:31:00.891Z,20.06
2018-10-05T22:33:26.402Z,20.06
2018-10-05T22:35:51.901Z,20.06
2018-10-05T22:38:17.394Z,20.05
2018-10-05T22:40:42.901Z,20.04
2018-10-05T22:43:08.389Z,20.04
2018-10-05T22:45:33.882Z,20.04
2018-10-05T22:47:59.374Z,20.04
2018-10-05T22:50:24.868Z,20.03
2018-10-05T22:52:50.356Z,20.03
2018-10-05T22:55:15.856Z,20.02
2018-10-05T22:57:41.346Z,20.03
2018-10-05T23:00:06.842Z,20.02
2018-10-05T23:02:32.339Z,20.03
2018-10-05T23:04:57.839Z,20.03
2018-10-05T23:07:23.343Z,20.02
2018-10-05T23:09:48.843Z,20.02
2018-10-05T23:12:14.343Z,20.02
2018-10-05T23:14:39.836Z,20.02
2018-10-05T23:17:05.327Z,20.02
2018-10-05T23:19:30.835Z,20.01
2018-10-05T23:21:56.409Z,20.01
2018-10-05T23:24:21.905Z,19.99
2018-10-05T23:26:47.421Z,20.00
2018-10-05T23:29:12.932Z,20.00
2018-10-05T23:31:38.427Z,19.99
2018-10-05T23:34:03.929Z,19.99
2018-10-05T23:36:29.421Z,19.99
2018-10-05T23:38:54.916Z,19.98
2018-10-05T23:41:20.415Z,19.98
2018-10-05T23:43:45.911Z,19.99
2018-10-05T23:46:11.411Z,19.98
2018-10-05T23:48:36.901Z,19.99
2018-10-05T23:51:02.400Z,19.98
2018-10-05T23:53:27.888Z,19.98
2018-10-05T23:55:53.388Z,19.98
2018-10-05T23:58:18.885Z,19.98
